Un Akdeniz — TCTD2 — position and weather

sailwx.info

Track history (hours):
 
Tides and Currents Weather Stations Pressure Air Temp Water Temp Dewpoint Dewpoint Depression Visibility Wind Speed Wind Dir Waves Ship Positions

Un Akdeniz

Last reported at 2017-Jun-26 13:30 UTC. Time now 2017-Jun-26 14:07 UTC.
Position N 40°24' E 011°30'.

Length 222 m; draft 6.8 m.

Type: Ship (hazmat cat A). MMSI: 271002572.

Date/timePositionNaut miles runAvg speedWind from/ knotsBaromVisibWave heightAir tempDewpointWater temp
2017-Jun-26 13:30N 40°24' E 011°30'1019.8
2017-Jun-26 13:00N 40°29' E 011°19'1119.7
2017-Jun-26 12:28N 40°35' E 011°07'10019.1
2017-Jun-26 07:14N 41°18' E 009°07'620.0
2017-Jun-26 06:55N 41°19' E 008°59'9919.6
2017-Jun-26 01:53N 42°18' E 007°13'819.6
2017-Jun-26 01:30N 42°23' E 007°05'1119.7
2017-Jun-26 00:55N 42°30' E 006°53'2019.5
2017-Jun-25 23:54N 42°43' E 006°32'3319.7
2017-Jun-25 22:14N 43°04' E 005°58'210.5
2017-Jun-25 22:00N 43°05' E 005°55'2 3.3
2017-Jun-25 21:30N 43°06' E 005°54'0 0.0
2017-Jun-25 21:00N 43°06' E 005°54'0 0.0
2017-Jun-25 20:30N 43°06' E 005°54'0 0.0
2017-Jun-25 20:00N 43°06' E 005°54'0 0.0
2017-Jun-25 19:30N 43°06' E 005°54'0 0.0
2017-Jun-25 19:00N 43°06' E 005°54'0 0.0
2017-Jun-25 18:30N 43°06' E 005°54'0 0.0
2017-Jun-25 18:00N 43°06' E 005°54'0 0.0
2017-Jun-25 17:30N 43°06' E 005°54'0 0.0
2017-Jun-25 17:00N 43°06' E 005°54'0 0.0
2017-Jun-25 16:30N 43°06' E 005°54'0 0.0
2017-Jun-25 16:00N 43°06' E 005°54'0 0.0
2017-Jun-25 15:30N 43°06' E 005°54'0 0.0
2017-Jun-25 15:00N 43°06' E 005°54'0 0.0
2017-Jun-25 14:30N 43°06' E 005°54'0 0.0
2017-Jun-25 13:30N 43°06' E 005°54'0 0.0
2017-Jun-25 13:00N 43°06' E 005°54'0 0.0
2017-Jun-25 12:30N 43°06' E 005°54'0 0.0
2017-Jun-25 12:00N 43°06' E 005°54'0 0.0
2017-Jun-25 11:30N 43°06' E 005°54'0 0.0
2017-Jun-25 11:00N 43°06' E 005°54'0 0.0
2017-Jun-25 10:30N 43°06' E 005°54'0 0.0
2017-Jun-25 10:00N 43°06' E 005°54'0 0.0
2017-Jun-25 09:30N 43°06' E 005°54'0 0.0
2017-Jun-25 09:00N 43°06' E 005°54'0 0.0
2017-Jun-25 08:30N 43°06' E 005°54'0 0.0
2017-Jun-25 08:00N 43°06' E 005°54'0 0.0
2017-Jun-25 07:30N 43°06' E 005°54'0 0.0
2017-Jun-25 07:00N 43°06' E 005°54'1 1.3
2017-Jun-25 06:30N 43°06' E 005°54'10119.1
2017-Jun-25 01:12N 42°03' E 007°41'520.0
2017-Jun-25 00:56N 41°59' E 007°47'21319.5
2017-Jun-24 14:00N 40°14' E 011°52'8420.3
2017-Jun-24 09:51N 39°30' E 013°26'720.2
2017-Jun-24 09:30N 39°26' E 013°34'1020.2
2017-Jun-24 09:00N 39°21' E 013°45'2019.9
2017-Jun-24 07:59N 39°11' E 014°08'919.9
2017-Jun-24 07:30N 39°06' E 014°18'1020.0
2017-Jun-24 07:00N 39°00' E 014°29'1020.0
2017-Jun-24 06:30N 38°55' E 014°40'1020.0
2017-Jun-24 06:00N 38°50' E 014°51'1020.1
2017-Jun-24 05:30N 38°45' E 015°02'1020.1
2017-Jun-24 05:00N 38°39' E 015°12'1020.1
2017-Jun-24 04:30N 38°33' E 015°22'1120.0
2017-Jun-24 03:57N 38°26' E 015°33'919.9
2017-Jun-24 03:29N 38°19' E 015°41'917.2
2017-Jun-24 02:57N 38°10' E 015°36'612.8
2017-Jun-24 02:30N 38°05' E 015°36'712.8
2017-Jun-24 01:56N 37°57' E 015°38'1219.7
2017-Jun-24 01:20N 37°51' E 015°51'1119.9
2017-Jun-24 00:46N 37°49' E 016°05'520.1
2017-Jun-24 00:30N 37°48' E 016°12'1020.4
2017-Jun-24 00:00N 37°45' E 016°24'1020.5
2017-Jun-23 23:30N 37°42' E 016°37'1020.0
2017-Jun-23 22:59N 37°39' E 016°49'919.3
2017-Jun-23 22:30N 37°36' E 017°01'1219.2
2017-Jun-23 21:51N 37°33' E 017°16'719.4
2017-Jun-23 21:30N 37°31' E 017°24'1019.5
2017-Jun-23 21:00N 37°29' E 017°36'1019.6
2017-Jun-23 20:29N 37°26' E 017°48'1019.8
2017-Jun-23 20:00N 37°23' E 017°60'1019.9
2017-Jun-23 19:30N 37°21' E 018°12'1020.1
2017-Jun-23 18:59N 37°18' E 018°24'1720.3
2017-Jun-23 18:10N 37°13' E 018°44'420.4
2017-Jun-23 17:59N 37°12' E 018°49'1020.3
2017-Jun-23 17:30N 37°09' E 019°01'1019.9
2017-Jun-23 17:00N 37°07' E 019°13'2819.9
2017-Jun-23 15:35N 36°59' E 019°47'17918.1
2017-Jun-23 05:39N 36°47' E 023°31'320.3
2017-Jun-23 05:31N 36°49' E 023°33'2520.5
2017-Jun-23 04:18N 37°10' E 023°49'920.9
2017-Jun-23 03:53N 37°17' E 023°55'1220.7
2017-Jun-23 03:18N 37°28' E 024°03'15420.2
2017-Jun-22 19:42N 39°40' E 025°43'1820.5
2017-Jun-22 18:49N 39°56' E 025°56'720.0
2017-Jun-22 18:28N 40°00' E 026°02'817.3
2017-Jun-22 17:58N 40°02' E 026°13'12 0.4
2017-Jun-21 09:50N 39°57' E 025°60'1018.6
2017-Jun-21 09:17N 39°49' E 025°52'519.7
2017-Jun-21 09:00N 39°44' E 025°49'15419.5
2017-Jun-21 01:08N 37°28' E 024°18'819.9
2017-Jun-21 00:44N 37°22' E 024°12'519.9
2017-Jun-21 00:30N 37°18' E 024°09'1019.8
2017-Jun-21 00:00N 37°10' E 024°01'49617.3
2017-Jun-19 19:22N 39°18' E 013°51'32919.7
2017-Jun-19 02:39N 42°05' E 007°36'320.0
2017-Jun-19 02:31N 42°06' E 007°33'1020.0
2017-Jun-19 02:00N 42°13' E 007°23'1019.7
2017-Jun-19 01:31N 42°19' E 007°12'1019.9
2017-Jun-19 01:00N 42°25' E 007°02'1019.9
2017-Jun-19 00:30N 42°32' E 006°51'5019.9
2017-Jun-18 21:58N 43°04' E 005°59'4 9.7
2017-Jun-18 21:30N 43°06' E 005°54'0 0.6
2017-Jun-18 21:00N 43°06' E 005°54'0 0.0
2017-Jun-18 20:29N 43°06' E 005°54'0 0.0
2017-Jun-18 19:59N 43°06' E 005°54'0 0.0
2017-Jun-18 19:29N 43°06' E 005°54'0 0.0
2017-Jun-18 19:01N 43°06' E 005°54'0 0.0
2017-Jun-18 18:31N 43°06' E 005°54'0 0.0
2017-Jun-18 18:00N 43°06' E 005°54'0 0.0
2017-Jun-18 17:30N 43°06' E 005°54'0 0.0
2017-Jun-18 17:00N 43°06' E 005°54'0 0.0
2017-Jun-18 16:31N 43°06' E 005°54'0 0.0
2017-Jun-18 16:00N 43°06' E 005°54'0 0.0
2017-Jun-18 15:30N 43°06' E 005°54'0 0.0
2017-Jun-18 15:00N 43°06' E 005°54'0 0.0
2017-Jun-18 14:01N 43°06' E 005°54'0 0.0
2017-Jun-18 13:31N 43°06' E 005°54'0 0.0
2017-Jun-18 13:00N 43°06' E 005°54'0 0.0
2017-Jun-18 12:31N 43°06' E 005°54'0 0.0
2017-Jun-18 12:01N 43°06' E 005°54'0 0.0
2017-Jun-18 11:31N 43°06' E 005°54'0 0.0
2017-Jun-18 11:00N 43°06' E 005°54'0 0.0
2017-Jun-18 10:30N 43°06' E 005°54'0 0.0
2017-Jun-18 10:00N 43°06' E 005°54'0 0.0
2017-Jun-18 09:30N 43°06' E 005°54'0 0.0
2017-Jun-18 09:01N 43°06' E 005°54'0 0.0
2017-Jun-18 08:31N 43°06' E 005°54'0 0.0
2017-Jun-18 08:00N 43°06' E 005°54'0 0.0
2017-Jun-18 07:31N 43°06' E 005°54'0 0.0
2017-Jun-18 07:01N 43°06' E 005°54'0 0.0
2017-Jun-18 06:31N 43°06' E 005°54'2 3.2
2017-Jun-18 06:00N 43°05' E 005°55'2113.8
2017-Jun-18 04:30N 42°53' E 006°18'1019.9
2017-Jun-18 04:00N 42°46' E 006°28'1419.6
2017-Jun-18 03:17N 42°37' E 006°43'619.5
2017-Jun-18 02:59N 42°34' E 006°49'3919.7
2017-Jun-18 01:02N 42°09' E 007°29'120.2
2017-Jun-18 00:57N 42°08' E 007°31'920.0
2017-Jun-18 00:30N 42°03' E 007°40'8618.7
2017-Jun-17 19:54N 41°21' E 009°21'1217.6
2017-Jun-17 19:13N 41°20' E 009°37'419.6
2017-Jun-17 19:00N 41°18' E 009°42'1119.5
2017-Jun-17 18:27N 41°12' E 009°54'1019.2
2017-Jun-17 17:57N 41°07' E 010°05'1619.7
2017-Jun-17 17:09N 40°59' E 010°22'319.7
2017-Jun-17 17:00N 40°57' E 010°26'8319.8
2017-Jun-17 12:49N 40°14' E 011°59'7719.8
2017-Jun-17 08:56N 39°34' E 013°24'919.9
2017-Jun-17 08:30N 39°29' E 013°34'1119.8
2017-Jun-17 07:59N 39°23' E 013°45'1019.9
2017-Jun-17 07:29N 39°18' E 013°56'6820.0
2017-Jun-17 04:07N 38°43' E 015°10'319.9
2017-Jun-17 03:58N 38°41' E 015°12'920.0
2017-Jun-17 03:30N 38°34' E 015°21'1219.9
2017-Jun-17 02:52N 38°26' E 015°33'719.7
2017-Jun-17 02:30N 38°21' E 015°40'3614.9
2017-Jun-17 00:03N 37°49' E 016°02'120.4
2017-Jun-17 00:00N 37°49' E 016°04'1020.3
2017-Jun-16 23:29N 37°47' E 016°17'1020.3
2017-Jun-16 23:00N 37°44' E 016°28'1020.3
2017-Jun-16 22:30N 37°41' E 016°41'1020.1
2017-Jun-16 22:00N 37°38' E 016°53'1019.8
2017-Jun-16 21:30N 37°36' E 017°05'4120.1
2017-Jun-16 19:28N 37°25' E 017°55'920.3
2017-Jun-16 19:00N 37°22' E 018°06'  
Track history (hours):
 
Tides and Currents Weather Stations Pressure Air Temp Water Temp Dewpoint Dewpoint Depression Visibility Wind Speed Wind Dir Waves Ship Positions

Un Akdeniz

Last reported at 2017-Jun-26 13:30 UTC. Time now 2017-Jun-26 14:07 UTC.
Position N 40°24' E 011°30'.

Length 222 m; draft 6.8 m.

Type: Ship (hazmat cat A). MMSI: 271002572.

Date/timePositionNaut miles runAvg speedWind from/ knotsBaromVisibWave heightAir tempDewpointWater temp
2017-Jun-26 13:30N 40°24' E 011°30'1019.8
2017-Jun-26 13:00N 40°29' E 011°19'1119.7
2017-Jun-26 12:28N 40°35' E 011°07'10019.1
2017-Jun-26 07:14N 41°18' E 009°07'620.0
2017-Jun-26 06:55N 41°19' E 008°59'9919.6
2017-Jun-26 01:53N 42°18' E 007°13'819.6
2017-Jun-26 01:30N 42°23' E 007°05'1119.7
2017-Jun-26 00:55N 42°30' E 006°53'2019.5
2017-Jun-25 23:54N 42°43' E 006°32'3319.7
2017-Jun-25 22:14N 43°04' E 005°58'210.5
2017-Jun-25 22:00N 43°05' E 005°55'2 3.3
2017-Jun-25 21:30N 43°06' E 005°54'0 0.0
2017-Jun-25 21:00N 43°06' E 005°54'0 0.0
2017-Jun-25 20:30N 43°06' E 005°54'0 0.0
2017-Jun-25 20:00N 43°06' E 005°54'0 0.0
2017-Jun-25 19:30N 43°06' E 005°54'0 0.0
2017-Jun-25 19:00N 43°06' E 005°54'0 0.0
2017-Jun-25 18:30N 43°06' E 005°54'0 0.0
2017-Jun-25 18:00N 43°06' E 005°54'0 0.0
2017-Jun-25 17:30N 43°06' E 005°54'0 0.0
2017-Jun-25 17:00N 43°06' E 005°54'0 0.0
2017-Jun-25 16:30N 43°06' E 005°54'0 0.0
2017-Jun-25 16:00N 43°06' E 005°54'0 0.0
2017-Jun-25 15:30N 43°06' E 005°54'0 0.0
2017-Jun-25 15:00N 43°06' E 005°54'0 0.0
2017-Jun-25 14:30N 43°06' E 005°54'0 0.0
2017-Jun-25 13:30N 43°06' E 005°54'0 0.0
2017-Jun-25 13:00N 43°06' E 005°54'0 0.0
2017-Jun-25 12:30N 43°06' E 005°54'0 0.0
2017-Jun-25 12:00N 43°06' E 005°54'0 0.0
2017-Jun-25 11:30N 43°06' E 005°54'0 0.0
2017-Jun-25 11:00N 43°06' E 005°54'0 0.0
2017-Jun-25 10:30N 43°06' E 005°54'0 0.0
2017-Jun-25 10:00N 43°06' E 005°54'0 0.0
2017-Jun-25 09:30N 43°06' E 005°54'0 0.0
2017-Jun-25 09:00N 43°06' E 005°54'0 0.0
2017-Jun-25 08:30N 43°06' E 005°54'0 0.0
2017-Jun-25 08:00N 43°06' E 005°54'0 0.0
2017-Jun-25 07:30N 43°06' E 005°54'0 0.0
2017-Jun-25 07:00N 43°06' E 005°54'1 1.3
2017-Jun-25 06:30N 43°06' E 005°54'10119.1
2017-Jun-25 01:12N 42°03' E 007°41'520.0
2017-Jun-25 00:56N 41°59' E 007°47'21319.5
2017-Jun-24 14:00N 40°14' E 011°52'8420.3
2017-Jun-24 09:51N 39°30' E 013°26'720.2
2017-Jun-24 09:30N 39°26' E 013°34'1020.2
2017-Jun-24 09:00N 39°21' E 013°45'2019.9
2017-Jun-24 07:59N 39°11' E 014°08'919.9
2017-Jun-24 07:30N 39°06' E 014°18'1020.0
2017-Jun-24 07:00N 39°00' E 014°29'1020.0
2017-Jun-24 06:30N 38°55' E 014°40'1020.0
2017-Jun-24 06:00N 38°50' E 014°51'1020.1
2017-Jun-24 05:30N 38°45' E 015°02'1020.1
2017-Jun-24 05:00N 38°39' E 015°12'1020.1
2017-Jun-24 04:30N 38°33' E 015°22'1120.0
2017-Jun-24 03:57N 38°26' E 015°33'919.9
2017-Jun-24 03:29N 38°19' E 015°41'917.2
2017-Jun-24 02:57N 38°10' E 015°36'612.8
2017-Jun-24 02:30N 38°05' E 015°36'712.8
2017-Jun-24 01:56N 37°57' E 015°38'1219.7
2017-Jun-24 01:20N 37°51' E 015°51'1119.9
2017-Jun-24 00:46N 37°49' E 016°05'520.1
2017-Jun-24 00:30N 37°48' E 016°12'1020.4
2017-Jun-24 00:00N 37°45' E 016°24'1020.5
2017-Jun-23 23:30N 37°42' E 016°37'1020.0
2017-Jun-23 22:59N 37°39' E 016°49'919.3
2017-Jun-23 22:30N 37°36' E 017°01'1219.2
2017-Jun-23 21:51N 37°33' E 017°16'719.4
2017-Jun-23 21:30N 37°31' E 017°24'1019.5
2017-Jun-23 21:00N 37°29' E 017°36'1019.6
2017-Jun-23 20:29N 37°26' E 017°48'1019.8
2017-Jun-23 20:00N 37°23' E 017°60'1019.9
2017-Jun-23 19:30N 37°21' E 018°12'1020.1
2017-Jun-23 18:59N 37°18' E 018°24'1720.3
2017-Jun-23 18:10N 37°13' E 018°44'420.4
2017-Jun-23 17:59N 37°12' E 018°49'1020.3
2017-Jun-23 17:30N 37°09' E 019°01'1019.9
2017-Jun-23 17:00N 37°07' E 019°13'2819.9
2017-Jun-23 15:35N 36°59' E 019°47'17918.1
2017-Jun-23 05:39N 36°47' E 023°31'320.3
2017-Jun-23 05:31N 36°49' E 023°33'2520.5
2017-Jun-23 04:18N 37°10' E 023°49'920.9
2017-Jun-23 03:53N 37°17' E 023°55'1220.7
2017-Jun-23 03:18N 37°28' E 024°03'15420.2
2017-Jun-22 19:42N 39°40' E 025°43'1820.5
2017-Jun-22 18:49N 39°56' E 025°56'720.0
2017-Jun-22 18:28N 40°00' E 026°02'817.3
2017-Jun-22 17:58N 40°02' E 026°13'12 0.4
2017-Jun-21 09:50N 39°57' E 025°60'1018.6
2017-Jun-21 09:17N 39°49' E 025°52'519.7
2017-Jun-21 09:00N 39°44' E 025°49'15419.5
2017-Jun-21 01:08N 37°28' E 024°18'819.9
2017-Jun-21 00:44N 37°22' E 024°12'519.9
2017-Jun-21 00:30N 37°18' E 024°09'1019.8
2017-Jun-21 00:00N 37°10' E 024°01'49617.3
2017-Jun-19 19:22N 39°18' E 013°51'32919.7
2017-Jun-19 02:39N 42°05' E 007°36'320.0
2017-Jun-19 02:31N 42°06' E 007°33'1020.0
2017-Jun-19 02:00N 42°13' E 007°23'1019.7
2017-Jun-19 01:31N 42°19' E 007°12'1019.9
2017-Jun-19 01:00N 42°25' E 007°02'1019.9
2017-Jun-19 00:30N 42°32' E 006°51'5019.9
2017-Jun-18 21:58N 43°04' E 005°59'4 9.7
2017-Jun-18 21:30N 43°06' E 005°54'0 0.6
2017-Jun-18 21:00N 43°06' E 005°54'0 0.0
2017-Jun-18 20:29N 43°06' E 005°54'0 0.0
2017-Jun-18 19:59N 43°06' E 005°54'0 0.0
2017-Jun-18 19:29N 43°06' E 005°54'0 0.0
2017-Jun-18 19:01N 43°06' E 005°54'0 0.0
2017-Jun-18 18:31N 43°06' E 005°54'0 0.0
2017-Jun-18 18:00N 43°06' E 005°54'0 0.0
2017-Jun-18 17:30N 43°06' E 005°54'0 0.0
2017-Jun-18 17:00N 43°06' E 005°54'0 0.0
2017-Jun-18 16:31N 43°06' E 005°54'0 0.0
2017-Jun-18 16:00N 43°06' E 005°54'0 0.0
2017-Jun-18 15:30N 43°06' E 005°54'0 0.0
2017-Jun-18 15:00N 43°06' E 005°54'0 0.0
2017-Jun-18 14:01N 43°06' E 005°54'0 0.0
2017-Jun-18 13:31N 43°06' E 005°54'0 0.0
2017-Jun-18 13:00N 43°06' E 005°54'0 0.0
2017-Jun-18 12:31N 43°06' E 005°54'0 0.0
2017-Jun-18 12:01N 43°06' E 005°54'0 0.0
2017-Jun-18 11:31N 43°06' E 005°54'0 0.0
2017-Jun-18 11:00N 43°06' E 005°54'0 0.0
2017-Jun-18 10:30N 43°06' E 005°54'0 0.0
2017-Jun-18 10:00N 43°06' E 005°54'0 0.0
2017-Jun-18 09:30N 43°06' E 005°54'0 0.0
2017-Jun-18 09:01N 43°06' E 005°54'0 0.0
2017-Jun-18 08:31N 43°06' E 005°54'0 0.0
2017-Jun-18 08:00N 43°06' E 005°54'0 0.0
2017-Jun-18 07:31N 43°06' E 005°54'0 0.0
2017-Jun-18 07:01N 43°06' E 005°54'0 0.0
2017-Jun-18 06:31N 43°06' E 005°54'2 3.2
2017-Jun-18 06:00N 43°05' E 005°55'2113.8
2017-Jun-18 04:30N 42°53' E 006°18'1019.9
2017-Jun-18 04:00N 42°46' E 006°28'1419.6
2017-Jun-18 03:17N 42°37' E 006°43'619.5
2017-Jun-18 02:59N 42°34' E 006°49'3919.7
2017-Jun-18 01:02N 42°09' E 007°29'120.2
2017-Jun-18 00:57N 42°08' E 007°31'920.0
2017-Jun-18 00:30N 42°03' E 007°40'8618.7
2017-Jun-17 19:54N 41°21' E 009°21'1217.6
2017-Jun-17 19:13N 41°20' E 009°37'419.6
2017-Jun-17 19:00N 41°18' E 009°42'1119.5
2017-Jun-17 18:27N 41°12' E 009°54'1019.2
2017-Jun-17 17:57N 41°07' E 010°05'1619.7
2017-Jun-17 17:09N 40°59' E 010°22'319.7
2017-Jun-17 17:00N 40°57' E 010°26'8319.8
2017-Jun-17 12:49N 40°14' E 011°59'7719.8
2017-Jun-17 08:56N 39°34' E 013°24'919.9
2017-Jun-17 08:30N 39°29' E 013°34'1119.8
2017-Jun-17 07:59N 39°23' E 013°45'1019.9
2017-Jun-17 07:29N 39°18' E 013°56'6820.0
2017-Jun-17 04:07N 38°43' E 015°10'319.9
2017-Jun-17 03:58N 38°41' E 015°12'920.0
2017-Jun-17 03:30N 38°34' E 015°21'1219.9
2017-Jun-17 02:52N 38°26' E 015°33'719.7
2017-Jun-17 02:30N 38°21' E 015°40'3614.9
2017-Jun-17 00:03N 37°49' E 016°02'120.4
2017-Jun-17 00:00N 37°49' E 016°04'1020.3
2017-Jun-16 23:29N 37°47' E 016°17'1020.3
2017-Jun-16 23:00N 37°44' E 016°28'1020.3
2017-Jun-16 22:30N 37°41' E 016°41'1020.1
2017-Jun-16 22:00N 37°38' E 016°53'1019.8
2017-Jun-16 21:30N 37°36' E 017°05'4120.1
2017-Jun-16 19:28N 37°25' E 017°55'920.3
2017-Jun-16 19:00N 37°22' E 018°06'  

Dump ship's entire track history